sensor_id;sensor_type;location;lat;lon;timestamp;pressure;altitude;pressure_sealevel;temperature;humidity
63019;BME280;49105;46.046;10.760;2023-02-05T00:01:23;96825.81;;;1.31;50.16
63019;BME280;49105;46.046;10.760;2023-02-05T00:03:49;96833.81;;;1.29;50.63
63019;BME280;49105;46.046;10.760;2023-02-05T00:06:15;96830.97;;;1.24;50.75
63019;BME280;49105;46.046;10.760;2023-02-05T00:08:40;96836.19;;;1.24;50.75
63019;BME280;49105;46.046;10.760;2023-02-05T00:11:05;96822.16;;;1.25;50.64
63019;BME280;49105;46.046;10.760;2023-02-05T00:13:38;96827.56;;;1.23;50.50
63019;BME280;49105;46.046;10.760;2023-02-05T00:18:33;96841.63;;;0.93;51.41
63019;BME280;49105;46.046;10.760;2023-02-05T00:20:58;96829.41;;;0.93;51.36
63019;BME280;49105;46.046;10.760;2023-02-05T00:23:24;96837.47;;;0.98;51.49
63019;BME280;49105;46.046;10.760;2023-02-05T00:25:49;96840.38;;;1.04;51.06
63019;BME280;49105;46.046;10.760;2023-02-05T00:28:14;96835.22;;;1.10;50.89
63019;BME280;49105;46.046;10.760;2023-02-05T00:30:40;96829.53;;;1.07;51.24
63019;BME280;49105;46.046;10.760;2023-02-05T00:33:05;96835.81;;;0.91;50.93
63019;BME280;49105;46.046;10.760;2023-02-05T00:35:31;96843.97;;;0.73;52.27
63019;BME280;49105;46.046;10.760;2023-02-05T00:37:56;96836.63;;;0.62;52.03
63019;BME280;49105;46.046;10.760;2023-02-05T00:40:22;96834.63;;;0.64;52.29
63019;BME280;49105;46.046;10.760;2023-02-05T00:42:47;96839.06;;;0.63;52.01
63019;BME280;49105;46.046;10.760;2023-02-05T00:45:12;96834.03;;;0.62;51.79
63019;BME280;49105;46.046;10.760;2023-02-05T00:47:38;96836.91;;;0.67;52.52
63019;BME280;49105;46.046;10.760;2023-02-05T00:50:04;96834.28;;;0.67;51.94
63019;BME280;49105;46.046;10.760;2023-02-05T00:52:29;96843.53;;;0.69;51.95
63019;BME280;49105;46.046;10.760;2023-02-05T00:54:55;96844.31;;;0.70;51.74
63019;BME280;49105;46.046;10.760;2023-02-05T00:57:20;96838.50;;;0.68;52.48
63019;BME280;49105;46.046;10.760;2023-02-05T00:59:52;96850.72;;;0.67;52.44
63019;BME280;49105;46.046;10.760;2023-02-05T01:02:20;96854.75;;;0.70;52.33
63019;BME280;49105;46.046;10.760;2023-02-05T01:04:51;96854.03;;;0.76;52.41
63019;BME280;49105;46.046;10.760;2023-02-05T01:07:18;96850.09;;;0.80;52.54
63019;BME280;49105;46.046;10.760;2023-02-05T01:09:44;96852.44;;;0.75;52.23
63019;BME280;49105;46.046;10.760;2023-02-05T01:12:09;96859.34;;;0.83;52.24
63019;BME280;49105;46.046;10.760;2023-02-05T01:14:34;96856.47;;;0.78;52.42
63019;BME280;49105;46.046;10.760;2023-02-05T01:17:00;96859.69;;;0.65;52.87
63019;BME280;49105;46.046;10.760;2023-02-05T01:19:25;96865.72;;;0.51;53.49
63019;BME280;49105;46.046;10.760;2023-02-05T01:21:50;96870.38;;;0.40;53.27
63019;BME280;49105;46.046;10.760;2023-02-05T01:24:16;96861.88;;;0.46;53.64
63019;BME280;49105;46.046;10.760;2023-02-05T01:26:41;96863.38;;;0.56;53.02
63019;BME280;49105;46.046;10.760;2023-02-05T01:29:07;96861.44;;;0.58;53.17
63019;BME280;49105;46.046;10.760;2023-02-05T01:31:32;96860.78;;;0.56;53.10
63019;BME280;49105;46.046;10.760;2023-02-05T01:33:58;96853.94;;;0.40;53.52
63019;BME280;49105;46.046;10.760;2023-02-05T01:36:23;96849.53;;;0.40;53.73
63019;BME280;49105;46.046;10.760;2023-02-05T01:38:49;96851.19;;;0.41;53.44
63019;BME280;49105;46.046;10.760;2023-02-05T01:41:14;96855.19;;;0.44;53.52
63019;BME280;49105;46.046;10.760;2023-02-05T01:43:40;96857.66;;;0.45;53.84
63019;BME280;49105;46.046;10.760;2023-02-05T01:46:15;96850.78;;;0.44;53.48
63019;BME280;49105;46.046;10.760;2023-02-05T01:48:47;96862.66;;;0.47;53.35
63019;BME280;49105;46.046;10.760;2023-02-05T01:51:15;96860.16;;;0.54;53.62
63019;BME280;49105;46.046;10.760;2023-02-05T01:53:42;96848.56;;;0.56;53.26
63019;BME280;49105;46.046;10.760;2023-02-05T01:56:13;96863.03;;;0.59;53.35
63019;BME280;49105;46.046;10.760;2023-02-05T01:58:45;96858.81;;;0.43;53.38
63019;BME280;49105;46.046;10.760;2023-02-05T02:01:12;96852.75;;;0.28;54.29
63019;BME280;49105;46.046;10.760;2023-02-05T02:03:38;96849.25;;;0.20;54.48
63019;BME280;49105;46.046;10.760;2023-02-05T02:06:05;96860.84;;;0.18;54.73
63019;BME280;49105;46.046;10.760;2023-02-05T02:08:30;96856.78;;;0.15;54.60
63019;BME280;49105;46.046;10.760;2023-02-05T02:10:59;96861.78;;;0.02;55.24
63019;BME280;49105;46.046;10.760;2023-02-05T02:13:27;96856.47;;;-0.05;55.70
63019;BME280;49105;46.046;10.760;2023-02-05T02:15:54;96861.22;;;-0.08;55.38
63019;BME280;49105;46.046;10.760;2023-02-05T02:18:21;96864.91;;;-0.03;55.27
63019;BME280;49105;46.046;10.760;2023-02-05T02:28:46;96873.38;;;0.14;55.16
63019;BME280;49105;46.046;10.760;2023-02-05T02:31:38;96873.00;;;0.03;55.24
63019;BME280;49105;46.046;10.760;2023-02-05T02:34:19;96872.31;;;0.09;55.28
63019;BME280;49105;46.046;10.760;2023-02-05T02:36:59;96872.47;;;0.07;54.96
63019;BME280;49105;46.046;10.760;2023-02-05T02:40:05;96887.94;;;0.09;55.08
63019;BME280;49105;46.046;10.760;2023-02-05T02:42:37;96866.72;;;0.12;55.15
63019;BME280;49105;46.046;10.760;2023-02-05T02:45:07;96868.72;;;0.10;54.96
63019;BME280;49105;46.046;10.760;2023-02-05T02:47:43;96875.34;;;0.12;55.41
63019;BME280;49105;46.046;10.760;2023-02-05T02:50:26;96875.94;;;-0.01;55.56
63019;BME280;49105;46.046;10.760;2023-02-05T02:53:00;96873.47;;;-0.17;56.19
63019;BME280;49105;46.046;10.760;2023-02-05T02:55:28;96881.00;;;-0.22;56.29
63019;BME280;49105;46.046;10.760;2023-02-05T02:57:57;96886.03;;;-0.20;56.11
63019;BME280;49105;46.046;10.760;2023-02-05T03:00:25;96890.72;;;-0.16;56.11
63019;BME280;49105;46.046;10.760;2023-02-05T03:02:56;96883.88;;;-0.17;56.54
63019;BME280;49105;46.046;10.760;2023-02-05T03:05:25;96889.78;;;-0.23;56.64
63019;BME280;49105;46.046;10.760;2023-02-05T03:07:54;96882.72;;;-0.14;56.35
63019;BME280;49105;46.046;10.760;2023-02-05T03:10:31;96878.69;;;-0.17;56.02
63019;BME280;49105;46.046;10.760;2023-02-05T03:12:59;96887.13;;;-0.15;56.08
63019;BME280;49105;46.046;10.760;2023-02-05T03:15:24;96892.34;;;-0.15;55.96
63019;BME280;49105;46.046;10.760;2023-02-05T03:17:51;96886.78;;;-0.12;55.67
63019;BME280;49105;46.046;10.760;2023-02-05T03:20:23;96891.34;;;-0.14;55.98
63019;BME280;49105;46.046;10.760;2023-02-05T03:22:50;96883.72;;;-0.15;56.04
63019;BME280;49105;46.046;10.760;2023-02-05T03:25:18;96890.25;;;-0.19;56.32
63019;BME280;49105;46.046;10.760;2023-02-05T03:27:45;96891.69;;;-0.17;56.19
63019;BME280;49105;46.046;10.760;2023-02-05T03:30:10;96878.34;;;-0.14;55.66
63019;BME280;49105;46.046;10.760;2023-02-05T03:35:58;96892.22;;;-0.21;56.18
63019;BME280;49105;46.046;10.760;2023-02-05T03:38:37;96890.13;;;-0.26;56.49
63019;BME280;49105;46.046;10.760;2023-02-05T03:56:40;96893.31;;;-0.16;55.99
63019;BME280;49105;46.046;10.760;2023-02-05T03:59:07;96888.53;;;-0.27;56.38
63019;BME280;49105;46.046;10.760;2023-02-05T04:01:33;96899.06;;;-0.20;56.27
63019;BME280;49105;46.046;10.760;2023-02-05T04:03:58;96897.78;;;-0.24;56.46
63019;BME280;49105;46.046;10.760;2023-02-05T04:06:24;96893.72;;;-0.27;56.50
63019;BME280;49105;46.046;10.760;2023-02-05T04:08:49;96892.91;;;-0.28;56.87
63019;BME280;49105;46.046;10.760;2023-02-05T04:11:15;96900.19;;;-0.23;56.57
63019;BME280;49105;46.046;10.760;2023-02-05T04:13:40;96909.91;;;-0.17;56.88
63019;BME280;49105;46.046;10.760;2023-02-05T04:16:06;96890.94;;;-0.03;56.76
63019;BME280;49105;46.046;10.760;2023-02-05T04:18:31;96893.19;;;0.01;56.19
63019;BME280;49105;46.046;10.760;2023-02-05T04:20:56;96895.97;;;-0.01;56.40
63019;BME280;49105;46.046;10.760;2023-02-05T04:23:24;96899.22;;;0.01;56.45
63019;BME280;49105;46.046;10.760;2023-02-05T04:25:53;96905.03;;;0.03;56.14
63019;BME280;49105;46.046;10.760;2023-02-05T04:28:19;96902.97;;;-0.02;56.32
63019;BME280;49105;46.046;10.760;2023-02-05T04:30:44;96906.91;;;-0.06;56.44
63019;BME280;49105;46.046;10.760;2023-02-05T04:33:10;96902.03;;;-0.09;56.66
63019;BME280;49105;46.046;10.760;2023-02-05T04:35:35;96896.81;;;-0.09;56.19
63019;BME280;49105;46.046;10.760;2023-02-05T04:38:00;96886.88;;;-0.05;56.43
63019;BME280;49105;46.046;10.760;2023-02-05T04:40:26;96893.25;;;-0.08;56.20
63019;BME280;49105;46.046;10.760;2023-02-05T04:42:51;96892.09;;;-0.28;56.55
63019;BME280;49105;46.046;10.760;2023-02-05T04:45:17;96894.75;;;-0.36;56.73
63019;BME280;49105;46.046;10.760;2023-02-05T04:47:42;96895.22;;;-0.33;56.91
63019;BME280;49105;46.046;10.760;2023-02-05T04:50:08;96890.25;;;-0.19;56.62
63019;BME280;49105;46.046;10.760;2023-02-05T04:52:33;96893.84;;;-0.20;56.79
63019;BME280;49105;46.046;10.760;2023-02-05T04:54:59;96899.16;;;-0.37;57.02
63019;BME280;49105;46.046;10.760;2023-02-05T04:57:24;96908.56;;;-0.36;57.10
63019;BME280;49105;46.046;10.760;2023-02-05T04:59:50;96899.50;;;-0.40;56.97
63019;BME280;49105;46.046;10.760;2023-02-05T05:02:15;96896.09;;;-0.40;57.51
63019;BME280;49105;46.046;10.760;2023-02-05T05:04:41;96905.31;;;-0.38;57.34
63019;BME280;49105;46.046;10.760;2023-02-05T05:07:07;96905.44;;;-0.31;57.08
63019;BME280;49105;46.046;10.760;2023-02-05T05:09:35;96896.13;;;-0.26;56.85
63019;BME280;49105;46.046;10.760;2023-02-05T05:12:01;96903.78;;;-0.24;56.75
63019;BME280;49105;46.046;10.760;2023-02-05T05:14:27;96906.13;;;-0.37;57.18
63019;BME280;49105;46.046;10.760;2023-02-05T05:16:52;96908.63;;;-0.44;57.55
63019;BME280;49105;46.046;10.760;2023-02-05T05:19:17;96910.47;;;-0.53;57.42
63019;BME280;49105;46.046;10.760;2023-02-05T05:21:43;96912.94;;;-0.59;57.30
63019;BME280;49105;46.046;10.760;2023-02-05T05:24:08;96904.16;;;-0.58;57.55
63019;BME280;49105;46.046;10.760;2023-02-05T05:26:34;96902.66;;;-0.53;57.53
63019;BME280;49105;46.046;10.760;2023-02-05T05:28:59;96897.47;;;-0.53;57.43
63019;BME280;49105;46.046;10.760;2023-02-05T05:31:25;96905.88;;;-0.51;57.43
63019;BME280;49105;46.046;10.760;2023-02-05T05:33:50;96910.81;;;-0.56;57.67
63019;BME280;49105;46.046;10.760;2023-02-05T05:36:16;96898.78;;;-0.57;58.04
63019;BME280;49105;46.046;10.760;2023-02-05T05:38:42;96911.03;;;-0.65;58.15
63019;BME280;49105;46.046;10.760;2023-02-05T05:41:14;96901.28;;;-0.71;58.08
63019;BME280;49105;46.046;10.760;2023-02-05T05:43:59;96892.69;;;-0.72;57.99
63019;BME280;49105;46.046;10.760;2023-02-05T05:46:25;96892.69;;;-0.72;58.48
63019;BME280;49105;46.046;10.760;2023-02-05T05:48:53;96899.88;;;-0.74;58.49
63019;BME280;49105;46.046;10.760;2023-02-05T05:51:20;96902.78;;;-0.77;57.93
63019;BME280;49105;46.046;10.760;2023-02-05T05:53:46;96901.66;;;-0.83;58.47
63019;BME280;49105;46.046;10.760;2023-02-05T05:56:12;96902.34;;;-0.89;58.36
63019;BME280;49105;46.046;10.760;2023-02-05T05:58:38;96904.66;;;-0.94;58.52
63019;BME280;49105;46.046;10.760;2023-02-05T06:01:05;96910.19;;;-0.97;58.75
63019;BME280;49105;46.046;10.760;2023-02-05T06:03:31;96908.69;;;-0.91;58.56
63019;BME280;49105;46.046;10.760;2023-02-05T06:06:00;96910.78;;;-0.87;58.80
63019;BME280;49105;46.046;10.760;2023-02-05T06:08:25;96896.97;;;-0.87;58.45
63019;BME280;49105;46.046;10.760;2023-02-05T06:10:51;96898.63;;;-0.86;58.26
63019;BME280;49105;46.046;10.760;2023-02-05T06:13:16;96907.03;;;-0.84;58.71
63019;BME280;49105;46.046;10.760;2023-02-05T06:15:42;96914.22;;;-0.86;58.29
63019;BME280;49105;46.046;10.760;2023-02-05T06:18:07;96917.78;;;-0.87;58.69
63019;BME280;49105;46.046;10.760;2023-02-05T06:20:32;96916.16;;;-0.88;58.82
63019;BME280;49105;46.046;10.760;2023-02-05T06:22:58;96924.13;;;-0.90;58.79
63019;BME280;49105;46.046;10.760;2023-02-05T06:25:23;96927.22;;;-0.86;58.82
63019;BME280;49105;46.046;10.760;2023-02-05T06:27:49;96937.94;;;-0.89;58.74
63019;BME280;49105;46.046;10.760;2023-02-05T06:30:14;96937.63;;;-0.94;58.92
63019;BME280;49105;46.046;10.760;2023-02-05T06:32:40;96945.59;;;-0.96;59.14
63019;BME280;49105;46.046;10.760;2023-02-05T06:35:05;96947.03;;;-0.93;59.19
63019;BME280;49105;46.046;10.760;2023-02-05T06:37:31;96938.22;;;-0.84;58.76
63019;BME280;49105;46.046;10.760;2023-02-05T06:39:56;96936.28;;;-0.82;58.95
63019;BME280;49105;46.046;10.760;2023-02-05T06:42:22;96938.38;;;-0.78;58.86
63019;BME280;49105;46.046;10.760;2023-02-05T06:44:47;96937.09;;;-0.82;59.12
63019;BME280;49105;46.046;10.760;2023-02-05T06:47:13;96944.38;;;-0.77;59.10
63019;BME280;49105;46.046;10.760;2023-02-05T06:49:38;96939.81;;;-0.75;58.95
63019;BME280;49105;46.046;10.760;2023-02-05T06:52:03;96939.84;;;-0.83;58.78
63019;BME280;49105;46.046;10.760;2023-02-05T06:54:29;96941.13;;;-0.79;58.97
63019;BME280;49105;46.046;10.760;2023-02-05T06:56:55;96945.66;;;-0.73;58.84
63019;BME280;49105;46.046;10.760;2023-02-05T06:59:20;96954.91;;;-0.70;58.90
63019;BME280;49105;46.046;10.760;2023-02-05T07:01:46;96961.84;;;-0.63;58.87
63019;BME280;49105;46.046;10.760;2023-02-05T07:04:11;96949.00;;;-0.56;58.53
63019;BME280;49105;46.046;10.760;2023-02-05T07:06:36;96948.34;;;-0.58;58.40
63019;BME280;49105;46.046;10.760;2023-02-05T07:09:02;96953.03;;;-0.54;58.73
63019;BME280;49105;46.046;10.760;2023-02-05T07:11:27;96951.72;;;-0.50;58.40
63019;BME280;49105;46.046;10.760;2023-02-05T07:13:53;96954.97;;;-0.47;58.45
63019;BME280;49105;46.046;10.760;2023-02-05T07:16:18;96958.63;;;-0.65;58.68
63019;BME280;49105;46.046;10.760;2023-02-05T07:18:44;96958.19;;;-0.77;59.06
63019;BME280;49105;46.046;10.760;2023-02-05T07:21:13;96949.91;;;-0.80;59.31
63019;BME280;49105;46.046;10.760;2023-02-05T07:23:40;96960.97;;;-0.78;59.40
63019;BME280;49105;46.046;10.760;2023-02-05T07:26:08;96957.53;;;-0.79;59.13
63019;BME280;49105;46.046;10.760;2023-02-05T07:28:33;96957.19;;;-0.76;59.18
63019;BME280;49105;46.046;10.760;2023-02-05T07:31:07;96979.44;;;-0.65;59.43
63019;BME280;49105;46.046;10.760;2023-02-05T07:33:32;96972.06;;;-0.53;59.07
63019;BME280;49105;46.046;10.760;2023-02-05T07:36:02;96967.03;;;-0.55;59.32
63019;BME280;49105;46.046;10.760;2023-02-05T07:38:28;96976.78;;;-0.57;59.23
63019;BME280;49105;46.046;10.760;2023-02-05T07:40:53;96973.88;;;-0.62;59.16
63019;BME280;49105;46.046;10.760;2023-02-05T07:43:19;96978.66;;;-0.73;59.50
63019;BME280;49105;46.046;10.760;2023-02-05T07:45:44;96990.66;;;-0.72;59.60
63019;BME280;49105;46.046;10.760;2023-02-05T07:48:09;96978.47;;;-0.72;59.70
63019;BME280;49105;46.046;10.760;2023-02-05T07:50:35;96978.97;;;-0.68;59.68
63019;BME280;49105;46.046;10.760;2023-02-05T07:53:00;96981.34;;;-0.59;59.93
63019;BME280;49105;46.046;10.760;2023-02-05T07:55:26;96972.22;;;-0.55;59.44
63019;BME280;49105;46.046;10.760;2023-02-05T07:57:51;96978.47;;;-0.72;60.14
63019;BME280;49105;46.046;10.760;2023-02-05T08:00:17;96981.44;;;-0.83;60.29
63019;BME280;49105;46.046;10.760;2023-02-05T08:02:42;96981.31;;;-0.90;60.42
63019;BME280;49105;46.046;10.760;2023-02-05T08:05:07;96990.25;;;-0.92;60.33
63019;BME280;49105;46.046;10.760;2023-02-05T08:07:33;96995.59;;;-0.86;60.72
63019;BME280;49105;46.046;10.760;2023-02-05T08:09:58;96982.41;;;-0.84;60.61
63019;BME280;49105;46.046;10.760;2023-02-05T08:12:24;96978.81;;;-0.75;60.28
63019;BME280;49105;46.046;10.760;2023-02-05T08:14:50;96987.38;;;-0.66;60.05
63019;BME280;49105;46.046;10.760;2023-02-05T08:17:16;96982.81;;;-0.56;60.14
63019;BME280;49105;46.046;10.760;2023-02-05T08:19:42;96976.06;;;-0.73;60.29
63019;BME280;49105;46.046;10.760;2023-02-05T08:22:07;96981.78;;;-0.86;60.18
63019;BME280;49105;46.046;10.760;2023-02-05T08:24:33;96967.00;;;-0.86;60.56
63019;BME280;49105;46.046;10.760;2023-02-05T08:26:58;96970.56;;;-0.87;60.84
63019;BME280;49105;46.046;10.760;2023-02-05T08:29:24;96976.41;;;-0.85;60.73
63019;BME280;49105;46.046;10.760;2023-02-05T08:31:49;96971.22;;;-0.85;60.56
63019;BME280;49105;46.046;10.760;2023-02-05T08:34:15;96976.72;;;-0.80;60.91
63019;BME280;49105;46.046;10.760;2023-02-05T08:36:40;96967.31;;;-0.81;60.79
63019;BME280;49105;46.046;10.760;2023-02-05T08:39:06;96974.41;;;-0.75;60.65
63019;BME280;49105;46.046;10.760;2023-02-05T08:41:31;96974.09;;;-0.71;60.54
63019;BME280;49105;46.046;10.760;2023-02-05T08:43:56;96976.34;;;-0.68;60.42
63019;BME280;49105;46.046;10.760;2023-02-05T08:46:22;96969.84;;;-0.64;60.42
63019;BME280;49105;46.046;10.760;2023-02-05T08:48:51;96960.25;;;-0.64;60.48
63019;BME280;49105;46.046;10.760;2023-02-05T08:51:18;96958.28;;;-0.62;60.13
63019;BME280;49105;46.046;10.760;2023-02-05T08:53:44;96957.78;;;-0.57;60.37
63019;BME280;49105;46.046;10.760;2023-02-05T08:56:10;96957.28;;;-0.53;60.32
63019;BME280;49105;46.046;10.760;2023-02-05T08:58:38;96951.38;;;-0.46;60.57
63019;BME280;49105;46.046;10.760;2023-02-05T09:01:06;96956.53;;;-0.38;60.46
63019;BME280;49105;46.046;10.760;2023-02-05T09:03:32;96955.69;;;-0.31;60.03
63019;BME280;49105;46.046;10.760;2023-02-05T09:05:59;96965.91;;;-0.29;59.77
63019;BME280;49105;46.046;10.760;2023-02-05T09:08:26;96958.22;;;-0.54;60.78
63019;BME280;49105;46.046;10.760;2023-02-05T09:10:51;96966.72;;;-0.60;60.98
63019;BME280;49105;46.046;10.760;2023-02-05T09:13:17;96967.47;;;-0.43;60.86
63019;BME280;49105;46.046;10.760;2023-02-05T09:15:45;96955.81;;;-0.24;60.82
63019;BME280;49105;46.046;10.760;2023-02-05T09:18:10;96955.72;;;-0.08;60.38
63019;BME280;49105;46.046;10.760;2023-02-05T09:20:45;96963.16;;;0.18;60.35
63019;BME280;49105;46.046;10.760;2023-02-05T09:23:12;96953.72;;;0.40;60.00
63019;BME280;49105;46.046;10.760;2023-02-05T09:25:38;96957.88;;;0.49;59.60
63019;BME280;49105;46.046;10.760;2023-02-05T09:28:07;96956.91;;;0.51;59.85
63019;BME280;49105;46.046;10.760;2023-02-05T09:30:37;96957.81;;;0.58;59.93
63019;BME280;49105;46.046;10.760;2023-02-05T09:33:03;96950.66;;;0.74;60.52
63019;BME280;49105;46.046;10.760;2023-02-05T09:35:33;96952.91;;;0.92;59.87
63019;BME280;49105;46.046;10.760;2023-02-05T09:37:59;96950.38;;;1.14;59.89
63019;BME280;49105;46.046;10.760;2023-02-05T09:48:53;96941.47;;;1.74;58.77
63019;BME280;49105;46.046;10.760;2023-02-05T09:51:36;96945.81;;;1.88;58.57
63019;BME280;49105;46.046;10.760;2023-02-05T09:54:16;96932.50;;;1.98;58.81
63019;BME280;49105;46.046;10.760;2023-02-05T09:56:44;96935.16;;;2.05;58.90
63019;BME280;49105;46.046;10.760;2023-02-05T09:59:15;96938.44;;;2.13;58.56
63019;BME280;49105;46.046;10.760;2023-02-05T10:01:49;96935.25;;;2.18;58.85
63019;BME280;49105;46.046;10.760;2023-02-05T10:04:15;96928.66;;;2.22;58.94
63019;BME280;49105;46.046;10.760;2023-02-05T10:26:52;96931.28;;;3.06;58.17
63019;BME280;49105;46.046;10.760;2023-02-05T10:29:28;96924.09;;;3.15;57.82
63019;BME280;49105;46.046;10.760;2023-02-05T10:32:13;96919.31;;;3.25;57.70
63019;BME280;49105;46.046;10.760;2023-02-05T10:37:13;96922.53;;;3.27;57.41
63019;BME280;49105;46.046;10.760;2023-02-05T10:39:40;96926.97;;;3.27;57.65
63019;BME280;49105;46.046;10.760;2023-02-05T10:44:40;96915.06;;;3.17;57.59
63019;BME280;49105;46.046;10.760;2023-02-05T10:47:37;96913.25;;;3.18;57.49
63019;BME280;49105;46.046;10.760;2023-02-05T11:06:51;96890.72;;;4.05;56.84
63019;BME280;49105;46.046;10.760;2023-02-05T11:09:28;96877.63;;;4.18;56.49
63019;BME280;49105;46.046;10.760;2023-02-05T11:12:03;96875.44;;;4.28;56.56
63019;BME280;49105;46.046;10.760;2023-02-05T11:14:42;96872.19;;;4.39;56.38
63019;BME280;49105;46.046;10.760;2023-02-05T11:17:27;96868.56;;;4.54;56.52
63019;BME280;49105;46.046;10.760;2023-02-05T11:19:58;96859.25;;;4.64;55.95
63019;BME280;49105;46.046;10.760;2023-02-05T11:22:36;96856.22;;;4.67;56.04
63019;BME280;49105;46.046;10.760;2023-02-05T11:25:19;96837.28;;;4.65;55.75
63019;BME280;49105;46.046;10.760;2023-02-05T11:37:14;96818.94;;;4.59;56.07
63019;BME280;49105;46.046;10.760;2023-02-05T11:39:44;96808.84;;;4.56;55.74
63019;BME280;49105;46.046;10.760;2023-02-05T11:42:20;96812.09;;;4.51;55.54
63019;BME280;49105;46.046;10.760;2023-02-05T11:44:51;96803.81;;;4.47;55.98
63019;BME280;49105;46.046;10.760;2023-02-05T11:47:32;96793.75;;;4.44;55.75
63019;BME280;49105;46.046;10.760;2023-02-05T11:49:59;96795.38;;;4.45;55.61
63019;BME280;49105;46.046;10.760;2023-02-05T11:59:01;96792.13;;;4.57;55.69
63019;BME280;49105;46.046;10.760;2023-02-05T12:01:30;96772.94;;;4.56;55.64
63019;BME280;49105;46.046;10.760;2023-02-05T12:03:58;96766.50;;;4.59;55.47
63019;BME280;49105;46.046;10.760;2023-02-05T12:06:49;96772.31;;;4.61;55.68
63019;BME280;49105;46.046;10.760;2023-02-05T12:09:20;96765.66;;;4.65;55.66
63019;BME280;49105;46.046;10.760;2023-02-05T12:21:06;96726.06;;;5.18;55.65
63019;BME280;49105;46.046;10.760;2023-02-05T12:24:07;96734.06;;;5.30;55.39
63019;BME280;49105;46.046;10.760;2023-02-05T12:26:40;96724.34;;;5.37;54.98
63019;BME280;49105;46.046;10.760;2023-02-05T12:41:56;96693.97;;;5.72;54.13
63019;BME280;49105;46.046;10.760;2023-02-05T12:44:22;96699.38;;;5.78;54.50
63019;BME280;49105;46.046;10.760;2023-02-05T12:54:55;96693.47;;;5.82;53.66
63019;BME280;49105;46.046;10.760;2023-02-05T12:57:55;96701.50;;;5.87;53.62
63019;BME280;49105;46.046;10.760;2023-02-05T13:06:59;96688.53;;;5.67;53.02
63019;BME280;49105;46.046;10.760;2023-02-05T13:12:56;96688.81;;;5.84;52.86
63019;BME280;49105;46.046;10.760;2023-02-05T13:15:30;96685.50;;;5.95;53.30
63019;BME280;49105;46.046;10.760;2023-02-05T13:20:40;96693.09;;;6.04;52.98
63019;BME280;49105;46.046;10.760;2023-02-05T13:23:27;96693.69;;;6.06;52.97
63019;BME280;49105;46.046;10.760;2023-02-05T13:32:39;96681.53;;;6.05;52.84
63019;BME280;49105;46.046;10.760;2023-02-05T13:35:07;96675.13;;;6.01;52.88
63019;BME280;49105;46.046;10.760;2023-02-05T13:37:46;96677.03;;;5.93;52.59
63019;BME280;49105;46.046;10.760;2023-02-05T13:40:49;96672.16;;;5.90;52.25
63019;BME280;49105;46.046;10.760;2023-02-05T14:17:50;96679.81;;;5.48;52.84
63019;BME280;49105;46.046;10.760;2023-02-05T14:22:59;96677.84;;;5.44;52.97
63019;BME280;49105;46.046;10.760;2023-02-05T14:38:21;96679.59;;;5.25;53.24
63019;BME280;49105;46.046;10.760;2023-02-05T14:41:13;96684.25;;;5.23;53.39
63019;BME280;49105;46.046;10.760;2023-02-05T14:54:14;96694.63;;;5.11;53.26
63019;BME280;49105;46.046;10.760;2023-02-05T14:57:22;96689.22;;;5.06;53.86
63019;BME280;49105;46.046;10.760;2023-02-05T15:22:39;96702.28;;;4.75;54.14
63019;BME280;49105;46.046;10.760;2023-02-05T15:31:32;96687.59;;;4.67;54.44
63019;BME280;49105;46.046;10.760;2023-02-05T15:37:44;96691.66;;;4.56;54.45
63019;BME280;49105;46.046;10.760;2023-02-05T15:48:59;96711.91;;;4.36;54.72
63019;BME280;49105;46.046;10.760;2023-02-05T16:04:52;96728.13;;;4.00;55.53
63019;BME280;49105;46.046;10.760;2023-02-05T16:07:40;96726.09;;;3.95;55.41
63019;BME280;49105;46.046;10.760;2023-02-05T16:13:28;96745.44;;;3.74;55.71
63019;BME280;49105;46.046;10.760;2023-02-05T16:16:20;96748.69;;;3.69;56.08
63019;BME280;49105;46.046;10.760;2023-02-05T16:18:54;96756.34;;;3.64;56.17
63019;BME280;49105;46.046;10.760;2023-02-05T16:21:26;96759.97;;;3.63;55.89
63019;BME280;49105;46.046;10.760;2023-02-05T16:24:03;96762.38;;;3.58;56.10
63019;BME280;49105;46.046;10.760;2023-02-05T16:27:00;96765.00;;;3.52;56.24
63019;BME280;49105;46.046;10.760;2023-02-05T16:29:39;96765.59;;;3.47;56.29
63019;BME280;49105;46.046;10.760;2023-02-05T16:32:36;96769.63;;;3.43;56.26
63019;BME280;49105;46.046;10.760;2023-02-05T16:35:06;96768.41;;;3.39;56.31
63019;BME280;49105;46.046;10.760;2023-02-05T16:37:33;96781.88;;;3.36;56.18
63019;BME280;49105;46.046;10.760;2023-02-05T16:40:02;96768.75;;;3.29;56.47
63019;BME280;49105;46.046;10.760;2023-02-05T16:42:39;96777.22;;;3.24;56.59
63019;BME280;49105;46.046;10.760;2023-02-05T16:47:38;96779.81;;;3.18;56.53
63019;BME280;49105;46.046;10.760;2023-02-05T16:50:33;96782.63;;;3.16;56.74
63019;BME280;49105;46.046;10.760;2023-02-05T16:53:01;96789.06;;;3.14;56.85
63019;BME280;49105;46.046;10.760;2023-02-05T16:57:54;96794.09;;;3.09;57.03
63019;BME280;49105;46.046;10.760;2023-02-05T17:00:23;96799.72;;;3.06;57.21
63019;BME280;49105;46.046;10.760;2023-02-05T17:02:54;96809.75;;;3.02;57.24
63019;BME280;49105;46.046;10.760;2023-02-05T17:05:23;96819.41;;;3.02;57.66
63019;BME280;49105;46.046;10.760;2023-02-05T17:07:58;96820.22;;;3.02;57.54
63019;BME280;49105;46.046;10.760;2023-02-05T17:10:25;96826.44;;;3.01;57.44
63019;BME280;49105;46.046;10.760;2023-02-05T17:13:01;96831.84;;;2.99;57.71
63019;BME280;49105;46.046;10.760;2023-02-05T17:15:37;96826.63;;;2.99;57.76
63019;BME280;49105;46.046;10.760;2023-02-05T17:18:28;96831.06;;;2.99;57.71
63019;BME280;49105;46.046;10.760;2023-02-05T17:21:18;96822.41;;;2.98;57.67
63019;BME280;49105;46.046;10.760;2023-02-05T17:23:48;96833.88;;;2.97;57.57
63019;BME280;49105;46.046;10.760;2023-02-05T17:26:14;96844.72;;;2.94;57.76
63019;BME280;49105;46.046;10.760;2023-02-05T17:28:41;96839.09;;;2.97;57.75
63019;BME280;49105;46.046;10.760;2023-02-05T17:31:09;96848.78;;;3.04;57.72
63019;BME280;49105;46.046;10.760;2023-02-05T17:33:35;96844.34;;;2.97;58.05
63019;BME280;49105;46.046;10.760;2023-02-05T17:36:00;96841.25;;;2.87;58.51